Time;durP1;ratioP1;P1;durP2;ratioP2;P2;SDS_P1;SDS_P2;PMS_P1;PMS_P2;Temp;Humidity;BMP_temperature;BMP_pressure;BME280_temperature;BME280_humidity;BME280_pressure;Samples;Min_cycle;Max_cycle;Signal;HPM_P1;HPM_P2
2022/03/18 00:00:31;;;;;;;2.80;2.60;;;18.60;38.40;;;;;;5041020;28;20301;-62
2022/03/18 00:02:57;;;;;;;2.57;2.40;;;18.60;38.40;;;;;;5042839;28;20227;-62
2022/03/18 00:05:26;;;;;;;2.80;2.60;;;18.60;38.40;;;;;;5037332;28;20426;-62
2022/03/18 00:07:53;;;;;;;2.70;2.50;;;18.60;38.30;;;;;;5037393;28;20419;-61
2022/03/18 00:10:19;;;;;;;2.27;2.17;;;18.60;38.30;;;;;;5038568;28;20883;-62
2022/03/18 00:12:46;;;;;;;2.33;2.23;;;18.60;38.40;;;;;;5039514;28;20820;-62
2022/03/18 00:15:13;;;;;;;2.07;1.97;;;18.60;38.40;;;;;;5036738;28;20451;-62
2022/03/18 00:17:40;;;;;;;2.57;2.37;;;18.60;38.30;;;;;;5039646;28;20449;-62
2022/03/18 00:20:07;;;;;;;2.97;2.40;;;18.60;38.40;;;;;;5037633;28;20418;-62
2022/03/18 00:22:34;;;;;;;2.40;2.20;;;18.60;38.40;;;;;;5036824;28;20440;-60
2022/03/18 00:24:59;;;;;;;2.67;2.47;;;18.60;38.30;;;;;;5040505;28;20426;-63
2022/03/18 00:27:26;;;;;;;2.70;2.50;;;18.60;39.10;;;;;;5040685;28;20435;-62
2022/03/18 00:29:52;;;;;;;2.30;2.20;;;18.60;38.40;;;;;;5037202;28;20252;-62
2022/03/18 00:32:18;;;;;;;3.30;3.10;;;18.60;38.40;;;;;;5040377;28;20545;-62
2022/03/18 00:34:43;;;;;;;2.60;2.40;;;18.60;38.40;;;;;;5044113;28;20219;-62
2022/03/18 00:37:09;;;;;;;2.70;2.50;;;18.60;38.30;;;;;;5044055;28;20218;-62
2022/03/18 00:39:35;;;;;;;2.23;2.13;;;18.60;38.30;;;;;;5037118;28;20215;-62
2022/03/18 00:42:01;;;;;;;2.33;2.23;;;18.60;38.30;;;;;;5043890;28;20300;-62
2022/03/18 00:44:26;;;;;;;2.60;2.40;;;18.60;38.30;;;;;;5039305;28;20346;-62
2022/03/18 00:46:55;;;;;;;2.27;2.17;;;18.60;38.30;;;;;;5042133;28;20522;-62
2022/03/18 00:52:05;;;;;;;2.73;2.57;;;18.60;38.30;;;;;;5042063;28;20451;-62
2022/03/18 00:54:36;;;;;;;2.60;2.40;;;18.60;38.30;;;;;;5041070;28;20422;-62
2022/03/18 00:57:02;;;;;;;3.63;2.40;;;18.60;38.30;;;;;;5040061;28;20452;-61
2022/03/18 00:59:28;;;;;;;2.70;2.50;;;18.60;38.30;;;;;;5041906;28;20444;-62
2022/03/18 01:01:54;;;;;;;3.17;3.00;;;18.50;38.20;;;;;;5049049;28;20437;-62
2022/03/18 01:04:21;;;;;;;2.33;2.23;;;18.50;38.20;;;;;;5039612;28;20460;-62
2022/03/18 01:06:49;;;;;;;2.80;2.60;;;18.60;39.10;;;;;;5043711;28;20546;-63
2022/03/18 01:09:15;;;;;;;2.60;2.40;;;18.60;38.30;;;;;;5040840;28;20824;-63
2022/03/18 01:11:41;;;;;;;2.40;2.20;;;18.60;38.30;;;;;;5036541;28;20454;-62
2022/03/18 01:14:07;;;;;;;2.33;2.23;;;18.60;38.30;;;;;;5038411;28;20823;-62
2022/03/18 01:16:33;;;;;;;2.43;2.33;;;18.60;38.30;;;;;;5040207;28;20250;-62
2022/03/18 01:18:58;;;;;;;3.00;2.80;;;18.50;38.30;;;;;;5042537;28;20214;-62
2022/03/18 01:21:24;;;;;;;2.30;2.20;;;18.50;38.30;;;;;;5042768;28;20921;-62
2022/03/18 01:23:49;;;;;;;2.60;2.50;;;18.50;38.20;;;;;;5047842;28;20606;-62
2022/03/18 01:26:15;;;;;;;2.50;2.30;;;18.50;38.20;;;;;;5042666;28;20222;-62
2022/03/18 01:28:40;;;;;;;2.60;2.50;;;18.50;38.30;;;;;;5041523;28;20218;-62
2022/03/18 01:31:06;;;;;;;2.40;2.30;;;18.50;38.20;;;;;;5040374;28;20755;-62
2022/03/18 01:33:33;;;;;;;3.00;2.80;;;18.50;38.20;;;;;;5039620;28;20219;-62
2022/03/18 01:35:59;;;;;;;2.50;2.30;;;18.50;38.30;;;;;;5042441;28;20613;-63
2022/03/18 01:38:25;;;;;;;2.63;2.43;;;18.50;38.20;;;;;;5041626;28;20451;-62
2022/03/18 01:40:51;;;;;;;2.60;2.40;;;18.50;38.20;;;;;;5039857;28;20231;-62
2022/03/18 01:43:17;;;;;;;2.80;2.40;;;18.50;38.10;;;;;;5041293;28;20305;-62
2022/03/18 01:45:42;;;;;;;2.90;2.70;;;18.50;38.20;;;;;;5039553;28;20502;-62
2022/03/18 01:48:08;;;;;;;3.53;2.83;;;18.50;38.20;;;;;;5039537;28;20219;-62
2022/03/18 01:50:34;;;;;;;3.03;2.60;;;18.50;38.20;;;;;;5038352;28;20218;-62
2022/03/18 01:53:00;;;;;;;2.47;2.27;;;18.50;38.20;;;;;;5040617;28;20258;-62
2022/03/18 01:55:25;;;;;;;3.03;2.83;;;18.50;38.20;;;;;;5043166;28;20950;-62
2022/03/18 01:57:51;;;;;;;2.43;2.27;;;18.50;38.20;;;;;;5040797;28;20349;-62
2022/03/18 02:00:21;;;;;;;2.67;2.47;;;18.50;38.20;;;;;;5041642;28;20303;-62
2022/03/18 02:02:47;;;;;;;2.20;2.10;;;18.50;38.10;;;;;;5038888;28;20235;-62
2022/03/18 02:05:13;;;;;;;6.20;2.70;;;18.50;38.20;;;;;;5039049;28;20513;-62
2022/03/18 02:07:39;;;;;;;2.97;2.77;;;18.50;38.20;;;;;;5041734;28;20908;-62
2022/03/18 02:10:06;;;;;;;2.53;2.33;;;18.50;38.20;;;;;;5041362;28;20219;-62
2022/03/18 02:12:32;;;;;;;2.50;2.30;;;18.50;38.20;;;;;;5037909;28;20277;-62
2022/03/18 02:14:57;;;;;;;2.90;2.70;;;18.50;38.20;;;;;;5040882;28;20808;-62
2022/03/18 02:17:23;;;;;;;2.27;2.17;;;18.50;38.20;;;;;;5038684;28;20230;-61
2022/03/18 02:19:49;;;;;;;2.30;2.10;;;18.50;38.20;;;;;;5041344;28;20218;-62
2022/03/18 02:22:25;;;;;;;2.50;2.40;;;18.50;38.30;;;;;;5038468;28;20237;-62
2022/03/18 02:24:53;;;;;;;2.77;2.57;;;18.50;38.20;;;;;;5038382;28;20272;-62
2022/03/18 02:27:19;;;;;;;2.60;2.50;;;18.50;38.20;;;;;;5037872;28;20434;-62
2022/03/18 02:29:45;;;;;;;3.13;2.93;;;18.50;38.20;;;;;;5035585;28;20964;-63
2022/03/18 02:32:13;;;;;;;2.50;2.40;;;18.50;38.20;;;;;;5034569;28;20543;-62
2022/03/18 02:34:39;;;;;;;3.60;2.70;;;18.50;38.10;;;;;;5041919;28;20411;-62
2022/03/18 02:37:06;;;;;;;2.80;2.60;;;18.50;38.10;;;;;;5038034;28;20937;-60
2022/03/18 02:39:32;;;;;;;2.60;2.47;;;18.50;38.00;;;;;;5036698;28;20538;-62
2022/03/18 02:41:58;;;;;;;2.73;2.53;;;18.50;38.10;;;;;;5039195;28;20548;-62
2022/03/18 02:44:24;;;;;;;2.73;2.53;;;18.50;38.10;;;;;;5038935;28;20210;-62
2022/03/18 02:46:50;;;;;;;2.50;2.40;;;18.50;38.10;;;;;;5039111;28;20428;-62
2022/03/18 02:49:16;;;;;;;2.50;2.30;;;18.50;38.10;;;;;;5036600;28;20242;-61
2022/03/18 02:51:41;;;;;;;2.53;2.43;;;18.50;38.10;;;;;;5036380;28;20458;-62
2022/03/18 02:54:09;;;;;;;2.43;2.23;;;18.50;38.00;;;;;;5035043;28;20243;-62
2022/03/18 02:56:35;;;;;;;2.77;2.10;;;18.50;38.00;;;;;;5038330;28;20305;-62
2022/03/18 02:59:02;;;;;;;2.27;2.17;;;18.50;38.00;;;;;;5035302;28;20513;-60
2022/03/18 03:01:30;;;;;;;2.10;2.00;;;18.50;38.00;;;;;;5041518;28;20215;-62
2022/03/18 03:03:56;;;;;;;2.20;2.10;;;18.50;38.00;;;;;;5036407;28;20439;-63
2022/03/18 03:09:06;;;;;;;2.47;2.30;;;18.50;37.90;;;;;;5045196;28;20441;-61
2022/03/18 03:11:32;;;;;;;2.67;2.50;;;18.50;38.00;;;;;;5040979;28;20439;-62
2022/03/18 03:13:57;;;;;;;2.30;2.20;;;18.50;37.90;;;;;;5036593;28;20309;-62
2022/03/18 03:16:23;;;;;;;2.10;2.00;;;18.50;37.90;;;;;;5042132;28;20272;-62
2022/03/18 03:18:49;;;;;;;2.50;2.37;;;18.50;37.90;;;;;;5039394;28;20230;-61
2022/03/18 03:21:15;;;;;;;2.03;1.93;;;18.50;37.90;;;;;;5037776;28;20316;-62
2022/03/18 03:23:41;;;;;;;2.40;2.30;;;18.50;37.90;;;;;;5036080;28;20304;-62
2022/03/18 03:26:07;;;;;;;2.83;2.63;;;18.50;37.90;;;;;;5036911;28;20450;-62
2022/03/18 03:28:33;;;;;;;2.40;2.27;;;18.50;37.90;;;;;;5037229;28;20528;-63
2022/03/18 03:31:00;;;;;;;2.50;2.30;;;18.50;37.90;;;;;;5045382;28;20513;-63
2022/03/18 03:33:26;;;;;;;2.87;2.60;;;18.50;37.90;;;;;;5041897;28;20449;-61
2022/03/18 03:35:51;;;;;;;2.07;1.97;;;18.50;37.90;;;;;;5040125;28;20458;-62
2022/03/18 03:38:17;;;;;;;3.47;2.57;;;18.50;37.90;;;;;;5034784;28;20535;-62
2022/03/18 03:40:43;;;;;;;2.27;2.17;;;18.50;37.90;;;;;;5033937;28;20239;-62
2022/03/18 03:43:09;;;;;;;2.27;2.17;;;18.50;37.90;;;;;;5035438;28;20599;-61
2022/03/18 03:45:36;;;;;;;2.63;2.43;;;18.50;37.90;;;;;;5041168;28;20942;-62
2022/03/18 03:48:03;;;;;;;2.27;2.17;;;18.50;37.90;;;;;;5042595;28;20494;-63
2022/03/18 03:50:28;;;;;;;2.37;2.17;;;18.50;37.90;;;;;;5040757;28;20441;-62
2022/03/18 03:52:54;;;;;;;2.50;2.30;;;18.50;37.90;;;;;;5037440;28;20961;-62
2022/03/18 03:55:20;;;;;;;2.03;1.93;;;18.50;37.90;;;;;;5037220;28;20215;-62
2022/03/18 03:57:45;;;;;;;2.30;2.10;;;18.50;37.90;;;;;;5037528;28;20223;-63
2022/03/18 04:00:12;;;;;;;2.60;2.50;;;18.50;37.90;;;;;;5038682;28;20223;-62
2022/03/18 04:02:38;;;;;;;2.30;2.20;;;18.40;37.80;;;;;;5039233;28;20235;-62
2022/03/18 04:05:08;;;;;;;2.33;2.13;;;18.50;37.90;;;;;;5039249;28;20423;-62
2022/03/18 04:07:37;;;;;;;2.17;2.07;;;18.50;37.90;;;;;;5036931;28;20223;-62
2022/03/18 04:10:09;;;;;;;2.13;2.03;;;18.50;37.90;;;;;;5045260;28;20450;-62
2022/03/18 04:12:35;;;;;;;2.00;1.90;;;18.50;37.90;;;;;;5040534;28;20977;-62
2022/03/18 04:15:05;;;;;;;2.40;2.30;;;18.40;37.80;;;;;;5041575;28;20451;-63
2022/03/18 04:17:43;;;;;;;1.70;1.60;;;18.50;37.90;;;;;;5041037;28;20281;-62
2022/03/18 04:20:11;;;;;;;1.93;1.83;;;18.50;37.90;;;;;;5042428;28;20863;-61
2022/03/18 04:22:37;;;;;;;2.60;2.40;;;18.50;37.90;;;;;;5040249;28;20436;-63
2022/03/18 04:25:03;;;;;;;2.50;2.30;;;18.50;37.90;;;;;;5044698;28;20809;-62
2022/03/18 04:27:29;;;;;;;2.37;2.03;;;18.50;37.90;;;;;;5038920;28;20445;-62
2022/03/18 04:29:54;;;;;;;2.17;2.00;;;18.40;37.80;;;;;;5042430;28;20509;-62
2022/03/18 04:32:20;;;;;;;2.10;2.00;;;18.40;37.80;;;;;;5040001;28;20751;-62
2022/03/18 04:34:46;;;;;;;2.10;2.00;;;18.50;37.90;;;;;;5041123;28;20229;-62
2022/03/18 04:37:11;;;;;;;2.00;1.90;;;18.50;37.90;;;;;;5040815;28;20754;-62
2022/03/18 04:39:37;;;;;;;2.03;1.93;;;18.50;37.90;;;;;;5041121;28;20749;-62
2022/03/18 04:42:02;;;;;;;1.83;1.73;;;18.50;37.90;;;;;;5041714;28;20223;-62
2022/03/18 04:44:28;;;;;;;2.07;1.97;;;18.40;37.80;;;;;;5039038;28;20218;-62
2022/03/18 04:46:54;;;;;;;1.90;1.80;;;18.40;37.80;;;;;;5040040;28;20739;-61
2022/03/18 04:49:20;;;;;;;2.93;2.73;;;18.40;37.80;;;;;;5043022;28;20222;-62
2022/03/18 04:51:45;;;;;;;2.00;1.90;;;18.40;37.80;;;;;;5043366;28;20460;-62
2022/03/18 04:54:11;;;;;;;2.23;2.13;;;18.50;37.90;;;;;;5049087;28;20223;-63
2022/03/18 04:59:20;;;;;;;2.40;2.20;;;18.50;37.90;;;;;;5040111;28;20225;-63
2022/03/18 05:01:46;;;;;;;2.20;2.10;;;18.50;37.90;;;;;;5035938;28;20813;-63
2022/03/18 05:04:12;;;;;;;2.00;1.90;;;18.50;37.90;;;;;;5036773;28;20243;-62
2022/03/18 05:06:39;;;;;;;2.13;2.00;;;18.50;37.90;;;;;;5041668;28;20467;-62
2022/03/18 05:09:05;;;;;;;2.00;1.90;;;18.50;37.90;;;;;;5042852;28;20253;-62
2022/03/18 05:11:31;;;;;;;1.90;1.80;;;18.50;37.90;;;;;;5041409;28;20425;-63
2022/03/18 05:13:57;;;;;;;2.33;2.23;;;18.50;37.90;;;;;;5043457;28;20439;-63
2022/03/18 05:16:24;;;;;;;2.07;1.97;;;18.50;37.90;;;;;;5040743;28;20279;-62
2022/03/18 05:18:50;;;;;;;2.00;1.90;;;18.50;37.90;;;;;;5040790;28;20549;-62
2022/03/18 05:21:16;;;;;;;2.37;2.27;;;18.50;37.90;;;;;;5035138;28;20466;-61
2022/03/18 05:23:42;;;;;;;2.30;1.80;;;18.50;37.90;;;;;;5044039;28;20241;-62
2022/03/18 05:26:08;;;;;;;2.20;2.10;;;18.50;37.90;;;;;;5040701;28;20420;-61
2022/03/18 05:28:33;;;;;;;2.10;2.00;;;18.50;37.90;;;;;;5041532;28;20218;-65
2022/03/18 05:30:59;;;;;;;2.20;2.10;;;18.50;37.90;;;;;;5040979;28;20269;-66
2022/03/18 05:33:25;;;;;;;3.10;2.00;;;18.50;37.90;;;;;;5039765;28;20227;-66
2022/03/18 05:35:51;;;;;;;2.20;2.10;;;18.60;38.00;;;;;;5039565;28;20223;-65
2022/03/18 05:38:16;;;;;;;2.00;1.90;;;18.60;38.00;;;;;;5037339;28;20430;-64
2022/03/18 05:40:42;;;;;;;1.93;1.83;;;18.60;37.90;;;;;;5040126;28;20231;-64
2022/03/18 05:43:08;;;;;;;2.80;2.10;;;18.60;37.90;;;;;;5038209;28;20235;-65
2022/03/18 05:45:34;;;;;;;2.17;1.90;;;18.60;37.70;;;;;;5041575;28;20226;-64
2022/03/18 05:48:00;;;;;;;2.77;2.57;;;18.70;37.80;;;;;;5040391;28;20428;-64
2022/03/18 05:50:25;;;;;;;2.47;2.27;;;18.70;37.70;;;;;;5043176;28;20226;-63
2022/03/18 05:52:51;;;;;;;2.27;2.17;;;18.70;37.70;;;;;;5040066;28;20441;-63
2022/03/18 05:55:17;;;;;;;2.43;2.23;;;18.70;37.70;;;;;;5037811;28;20225;-62
2022/03/18 05:57:43;;;;;;;2.13;2.03;;;18.70;37.60;;;;;;5041691;28;20693;-61
2022/03/18 06:00:09;;;;;;;2.30;2.20;;;18.70;37.60;;;;;;5039770;28;20215;-62
2022/03/18 06:02:35;;;;;;;2.20;2.10;;;18.70;37.70;;;;;;5037262;28;20564;-62
2022/03/18 06:05:02;;;;;;;3.60;2.00;;;18.70;37.60;;;;;;5040878;28;20455;-62
2022/03/18 06:07:28;;;;;;;2.07;1.80;;;18.70;37.60;;;;;;5040638;28;20457;-62
2022/03/18 06:12:38;;;;;;;3.33;2.03;;;18.70;37.60;;;;;;5039244;28;20881;-62
2022/03/18 06:15:04;;;;;;;2.57;2.37;;;18.70;37.60;;;;;;5038771;28;20510;-62
2022/03/18 06:17:30;;;;;;;2.30;2.10;;;18.70;37.60;;;;;;5039939;28;20629;-63
2022/03/18 06:19:55;;;;;;;2.10;1.90;;;18.70;37.60;;;;;;5040304;28;20419;-64
2022/03/18 06:22:21;;;;;;;2.10;2.00;;;18.70;38.30;;;;;;5035354;28;20266;-63
2022/03/18 06:24:47;;;;;;;2.10;2.00;;;18.70;37.60;;;;;;5039100;28;20278;-62
2022/03/18 06:27:12;;;;;;;3.40;1.80;;;18.70;37.60;;;;;;5040631;28;20237;-62
2022/03/18 06:29:42;;;;;;;2.53;2.30;;;18.70;37.60;;;;;;5042714;28;20223;-64
2022/03/18 06:32:09;;;;;;;6.13;2.10;;;18.70;37.60;;;;;;5038119;28;20268;-64
2022/03/18 06:34:35;;;;;;;2.03;1.93;;;18.70;37.60;;;;;;5039276;28;20538;-64
2022/03/18 06:37:01;;;;;;;2.47;2.27;;;18.70;37.60;;;;;;5040576;28;20454;-66
2022/03/18 06:39:27;;;;;;;2.20;2.10;;;18.70;37.50;;;;;;5041346;28;20991;-65
2022/03/18 06:41:54;;;;;;;1.93;1.80;;;18.70;37.50;;;;;;5037681;28;20610;-64
2022/03/18 06:44:20;;;;;;;3.10;2.30;;;18.70;37.50;;;;;;5043570;28;20555;-66
2022/03/18 06:46:45;;;;;;;2.10;2.00;;;18.70;37.50;;;;;;5038456;28;20970;-66
2022/03/18 06:49:13;;;;;;;2.50;1.93;;;18.70;38.20;;;;;;5039347;28;20292;-63
2022/03/18 06:51:39;;;;;;;2.07;1.80;;;18.70;37.50;;;;;;5039304;28;20219;-61
2022/03/18 06:54:04;;;;;;;1.90;1.80;;;18.70;37.50;;;;;;5034883;28;20874;-61
2022/03/18 06:56:31;;;;;;;2.10;2.00;;;18.70;37.50;;;;;;5038690;28;20955;-63
2022/03/18 06:58:56;;;;;;;2.10;1.90;;;18.70;38.30;;;;;;5035484;28;20265;-61
2022/03/18 07:01:22;;;;;;;7.90;2.10;;;18.70;37.50;;;;;;5033732;28;20435;-61
2022/03/18 07:03:48;;;;;;;4.27;2.50;;;18.70;37.50;;;;;;5038047;28;20310;-61
2022/03/18 07:06:14;;;;;;;3.27;2.07;;;18.70;37.50;;;;;;5043801;28;20231;-61
2022/03/18 07:08:40;;;;;;;2.63;2.43;;;18.70;37.50;;;;;;5037460;28;20427;-61
2022/03/18 07:11:05;;;;;;;4.30;1.77;;;18.70;37.50;;;;;;5035166;28;20411;-61
2022/03/18 07:13:31;;;;;;;2.43;2.23;;;18.70;37.50;;;;;;5035710;28;20218;-60
2022/03/18 07:17:54;;;;;;;2.10;2.00;;;18.70;37.50;;;;;;5038745;28;20230;-60
2022/03/18 07:18:43;;;;;;;2.70;1.90;;;18.70;37.50;;;;;;5036880;28;20458;-60
2022/03/18 07:21:08;;;;;;;4.93;2.50;;;18.70;37.50;;;;;;5036803;28;20774;-60
2022/03/18 07:23:34;;;;;;;3.33;2.17;;;18.70;37.50;;;;;;5037043;28;20352;-60
2022/03/18 07:25:59;;;;;;;2.50;2.30;;;18.70;37.50;;;;;;5037640;28;20508;-61
2022/03/18 07:28:25;;;;;;;2.00;1.90;;;18.70;37.50;;;;;;5038308;28;20714;-60
2022/03/18 07:30:50;;;;;;;2.20;2.10;;;18.70;37.50;;;;;;5037302;28;20624;-60
2022/03/18 07:33:16;;;;;;;1.80;1.70;;;18.70;37.50;;;;;;5037243;28;20241;-60
2022/03/18 07:35:42;;;;;;;2.40;2.20;;;18.70;37.50;;;;;;5040886;28;20214;-60
2022/03/18 07:38:09;;;;;;;8.40;2.00;;;18.70;37.50;;;;;;5036407;28;20223;-60
2022/03/18 07:40:38;;;;;;;2.30;2.10;;;18.70;37.50;;;;;;5039062;28;20435;-60
2022/03/18 07:43:05;;;;;;;1.83;1.73;;;18.70;37.50;;;;;;5036331;28;20445;-61
2022/03/18 07:45:33;;;;;;;3.93;1.97;;;18.70;37.50;;;;;;5035863;28;20438;-60
2022/03/18 07:48:02;;;;;;;2.10;1.60;;;18.70;37.50;;;;;;5039279;28;21127;-62
2022/03/18 07:50:29;;;;;;;1.93;1.80;;;18.70;37.50;;;;;;5038393;28;20486;-62
2022/03/18 07:52:57;;;;;;;2.90;1.87;;;18.70;37.40;;;;;;5041021;28;20422;-62
2022/03/18 07:55:25;;;;;;;2.30;2.00;;;18.70;37.40;;;;;;5034916;28;20414;-61
2022/03/18 07:57:51;;;;;;;2.10;1.90;;;18.70;37.40;;;;;;5035387;28;20443;-61
2022/03/18 08:00:17;;;;;;;2.43;2.23;;;18.70;37.50;;;;;;5038087;28;20432;-62
2022/03/18 08:02:45;;;;;;;2.20;1.90;;;18.70;37.40;;;;;;5037400;28;20446;-65
2022/03/18 08:05:11;;;;;;;3.70;2.03;;;18.70;37.30;;;;;;5034407;28;20272;-62
2022/03/18 08:07:37;;;;;;;1.93;1.80;;;18.70;37.30;;;;;;5037735;28;20464;-65
2022/03/18 08:10:04;;;;;;;2.30;2.10;;;18.70;37.30;;;;;;5035877;28;20430;-63
2022/03/18 08:12:31;;;;;;;4.50;2.37;;;18.70;37.30;;;;;;5034579;28;20430;-62
2022/03/18 08:15:05;;;;;;;1.80;1.63;;;18.70;37.30;;;;;;5035368;28;20424;-61
2022/03/18 08:17:31;;;;;;;2.30;1.83;;;18.70;38.10;;;;;;5038470;28;20923;-61
2022/03/18 08:19:57;;;;;;;2.40;1.97;;;18.70;37.30;;;;;;5042290;28;20414;-61
2022/03/18 08:22:25;;;;;;;5.87;1.90;;;18.70;37.30;;;;;;5038276;28;20268;-61
2022/03/18 08:24:52;;;;;;;3.80;1.93;;;18.70;37.30;;;;;;5035625;28;20830;-61
2022/03/18 08:27:18;;;;;;;2.70;1.67;;;18.70;37.30;;;;;;5035950;28;20900;-61
2022/03/18 08:29:45;;;;;;;2.00;1.70;;;18.70;37.30;;;;;;5037244;28;20539;-61
2022/03/18 08:32:13;;;;;;;2.50;1.80;;;18.70;37.30;;;;;;5034862;28;20439;-61
2022/03/18 08:34:39;;;;;;;1.70;1.60;;;18.70;37.30;;;;;;5032873;28;20419;-61
2022/03/18 08:37:05;;;;;;;2.70;1.70;;;18.70;37.20;;;;;;5037167;28;20824;-61
2022/03/18 08:39:35;;;;;;;2.63;2.40;;;18.70;37.20;;;;;;5036534;28;20687;-61
2022/03/18 08:42:00;;;;;;;2.10;2.00;;;18.70;37.20;;;;;;5038942;28;20438;-61
2022/03/18 08:44:26;;;;;;;2.07;1.97;;;18.70;37.20;;;;;;5038587;28;21039;-61
2022/03/18 08:46:52;;;;;;;2.00;1.90;;;18.70;37.20;;;;;;5033891;28;20219;-61
2022/03/18 08:49:18;;;;;;;2.13;1.97;;;18.70;37.20;;;;;;5036207;28;20223;-61
2022/03/18 08:51:43;;;;;;;1.80;1.70;;;18.70;37.20;;;;;;5035957;28;20418;-61
2022/03/18 08:54:09;;;;;;;2.27;1.77;;;18.70;37.20;;;;;;5040112;28;20371;-61
2022/03/18 08:56:35;;;;;;;2.37;2.17;;;18.70;37.20;;;;;;5042088;28;20207;-61
2022/03/18 08:59:08;;;;;;;1.80;1.70;;;18.70;37.20;;;;;;5044036;28;20230;-61
2022/03/18 09:01:35;;;;;;;1.60;1.50;;;18.70;37.10;;;;;;5038393;28;20435;-61
2022/03/18 09:04:00;;;;;;;1.63;1.53;;;18.70;37.10;;;;;;5039093;28;20823;-61
2022/03/18 09:06:26;;;;;;;1.90;1.50;;;18.70;37.10;;;;;;5044115;28;20943;-61
2022/03/18 09:08:52;;;;;;;1.80;1.70;;;18.70;37.10;;;;;;5040089;28;20272;-61
2022/03/18 09:11:18;;;;;;;2.07;1.87;;;18.70;37.00;;;;;;5039448;28;20476;-61
2022/03/18 09:13:44;;;;;;;1.87;1.70;;;18.70;37.00;;;;;;5039174;28;20306;-61
2022/03/18 09:16:11;;;;;;;2.17;1.60;;;18.70;37.10;;;;;;5041148;28;20222;-61
2022/03/18 09:18:37;;;;;;;2.17;1.73;;;18.70;37.00;;;;;;5037822;28;20846;-61
2022/03/18 09:21:03;;;;;;;2.77;1.70;;;18.60;36.90;;;;;;5041734;28;21054;-61
2022/03/18 09:23:28;;;;;;;2.60;1.70;;;18.70;37.00;;;;;;5039637;28;20242;-61
2022/03/18 09:25:54;;;;;;;1.73;1.63;;;18.70;37.00;;;;;;5036602;28;20230;-61
2022/03/18 09:28:19;;;;;;;2.00;1.60;;;18.70;37.00;;;;;;5041357;28;20222;-61
2022/03/18 09:30:45;;;;;;;1.70;1.60;;;18.70;37.00;;;;;;5040528;28;20284;-62
2022/03/18 09:33:11;;;;;;;3.07;1.70;;;18.60;36.90;;;;;;5022663;28;20226;-62
2022/03/18 09:35:38;;;;;;;1.73;1.63;;;18.60;36.90;;;;;;5034970;28;20222;-63
2022/03/18 09:38:03;;;;;;;1.70;1.60;;;18.60;36.90;;;;;;5040159;28;20974;-66
2022/03/18 09:40:30;;;;;;;1.63;1.53;;;18.70;37.00;;;;;;5037368;28;20524;-65
2022/03/18 09:43:04;;;;;;;1.53;1.43;;;18.60;36.80;;;;;;5037188;28;20845;-65
2022/03/18 09:45:33;;;;;;;2.00;1.67;;;18.60;36.80;;;;;;5036955;28;20471;-64
2022/03/18 09:48:00;;;;;;;1.73;1.50;;;18.70;36.90;;;;;;5041205;28;20804;-62
2022/03/18 09:50:27;;;;;;;2.07;1.40;;;18.70;36.80;;;;;;5042842;28;20449;-62
2022/03/18 09:52:52;;;;;;;1.60;1.50;;;18.70;36.80;;;;;;5036287;28;20423;-66
2022/03/18 09:55:18;;;;;;;1.60;1.50;;;18.70;36.90;;;;;;5040778;28;20792;-62
2022/03/18 09:57:44;;;;;;;2.30;1.73;;;18.70;36.80;;;;;;5036029;28;20688;-64
2022/03/18 10:00:10;;;;;;;1.90;1.70;;;18.70;36.80;;;;;;5042630;28;20215;-63
2022/03/18 10:02:36;;;;;;;2.00;1.50;;;18.70;36.90;;;;;;5037403;28;20231;-63
2022/03/18 10:05:10;;;;;;;3.10;1.50;;;18.70;37.00;;;;;;5041561;28;20844;-62
2022/03/18 10:07:37;;;;;;;1.43;1.33;;;18.70;36.90;;;;;;5037146;28;20686;-63
2022/03/18 10:10:14;;;;;;;1.30;1.20;;;18.70;36.90;;;;;;5035906;28;20419;-63
2022/03/18 10:12:45;;;;;;;1.57;1.43;;;18.70;37.00;;;;;;5037463;28;20450;-62
2022/03/18 10:15:19;;;;;;;1.60;1.50;;;18.60;36.90;;;;;;5038465;28;20813;-62
2022/03/18 10:17:48;;;;;;;2.50;1.33;;;18.60;36.90;;;;;;5042357;28;20544;-62
2022/03/18 10:20:23;;;;;;;2.13;1.40;;;18.60;37.00;;;;;;5041380;28;20595;-62
2022/03/18 10:22:49;;;;;;;1.43;1.33;;;18.60;37.00;;;;;;5041914;28;20450;-62
2022/03/18 10:25:37;;;;;;;3.23;1.27;;;18.60;37.00;;;;;;5042382;28;20517;-62
2022/03/18 10:28:04;;;;;;;1.80;1.47;;;18.60;37.00;;;;;;5040401;28;20519;-62
2022/03/18 10:30:31;;;;;;;2.07;1.30;;;18.60;37.10;;;;;;5042375;28;20411;-63
2022/03/18 10:32:56;;;;;;;1.80;1.40;;;18.60;37.10;;;;;;5038560;28;20442;-62
2022/03/18 10:38:13;;;;;;;1.43;1.33;;;18.60;37.10;;;;;;5043112;28;20237;-63
2022/03/18 10:40:39;;;;;;;1.53;1.40;;;18.60;37.10;;;;;;5038120;28;20920;-63
2022/03/18 10:43:07;;;;;;;3.07;1.40;;;18.60;37.10;;;;;;5038504;28;20234;-62
2022/03/18 10:45:33;;;;;;;1.40;1.30;;;18.60;37.10;;;;;;5039347;28;20418;-64
2022/03/18 10:48:13;;;;;;;2.23;1.40;;;18.60;37.10;;;;;;5041238;28;20530;-62
2022/03/18 10:50:40;;;;;;;1.40;1.27;;;18.60;37.20;;;;;;5041607;28;20429;-62
2022/03/18 10:53:08;;;;;;;1.63;1.53;;;18.60;37.20;;;;;;5041700;28;21038;-63
2022/03/18 10:55:39;;;;;;;1.40;1.30;;;18.60;37.20;;;;;;5035458;28;20456;-63
2022/03/18 10:58:11;;;;;;;1.80;1.70;;;18.60;37.10;;;;;;5040144;28;20426;-62
2022/03/18 11:00:41;;;;;;;1.40;1.30;;;18.60;37.20;;;;;;5035836;28;20467;-62
2022/03/18 11:03:07;;;;;;;1.47;1.37;;;18.60;37.20;;;;;;5037889;28;20468;-62
2022/03/18 11:05:40;;;;;;;2.23;2.13;;;18.60;37.20;;;;;;5038253;28;20504;-62
2022/03/18 11:08:25;;;;;;;1.90;1.20;;;18.60;37.20;;;;;;5041377;28;20475;-63
2022/03/18 11:11:07;;;;;;;1.43;1.33;;;18.60;37.20;;;;;;5041466;28;20419;-63
2022/03/18 11:13:56;;;;;;;1.73;1.63;;;18.60;37.20;;;;;;5037258;28;20422;-62
2022/03/18 11:16:25;;;;;;;4.90;1.40;;;18.60;37.30;;;;;;5040203;28;20426;-62
2022/03/18 11:18:52;;;;;;;1.50;1.40;;;18.60;37.30;;;;;;5038907;28;20448;-63
2022/03/18 11:21:21;;;;;;;1.67;1.57;;;18.60;37.40;;;;;;5039743;28;20824;-62
2022/03/18 11:23:47;;;;;;;1.63;1.53;;;18.60;37.50;;;;;;5037813;28;20461;-63
2022/03/18 11:26:15;;;;;;;1.70;1.60;;;18.60;37.30;;;;;;5039195;28;20426;-62
2022/03/18 11:28:41;;;;;;;1.50;1.40;;;18.60;37.30;;;;;;5038381;28;20474;-63
2022/03/18 11:31:16;;;;;;;1.70;1.30;;;18.60;37.40;;;;;;5041103;28;20418;-62
2022/03/18 11:34:09;;;;;;;1.50;1.40;;;18.60;37.40;;;;;;5039686;28;20280;-63
2022/03/18 11:36:37;;;;;;;1.33;1.23;;;18.60;37.30;;;;;;5036583;28;20462;-62
2022/03/18 11:39:08;;;;;;;1.50;1.40;;;18.60;37.50;;;;;;5037719;28;20852;-63
2022/03/18 11:42:09;;;;;;;1.37;1.20;;;18.60;37.30;;;;;;5036656;28;20481;-63
2022/03/18 11:44:49;;;;;;;1.40;1.30;;;18.60;37.40;;;;;;5021201;28;20944;-62
2022/03/18 11:47:20;;;;;;;1.30;1.20;;;18.60;37.50;;;;;;5038288;28;20435;-63
2022/03/18 11:49:47;;;;;;;1.20;1.10;;;18.60;37.50;;;;;;5035992;28;20465;-62
2022/03/18 11:52:13;;;;;;;1.53;1.37;;;18.60;37.50;;;;;;5040175;28;20433;-63
2022/03/18 11:55:06;;;;;;;1.30;1.20;;;18.50;37.50;;;;;;5037915;28;20533;-62
2022/03/18 11:57:33;;;;;;;1.23;1.13;;;18.60;37.50;;;;;;5035250;28;20226;-63
2022/03/18 12:00:28;;;;;;;1.33;1.20;;;18.60;37.50;;;;;;5035255;28;20410;-62
2022/03/18 12:02:54;;;;;;;1.30;1.10;;;18.60;37.50;;;;;;5037973;28;20442;-63
2022/03/18 12:05:20;;;;;;;1.20;1.10;;;18.50;37.50;;;;;;5039945;28;20425;-62
2022/03/18 12:07:51;;;;;;;1.30;1.20;;;18.60;37.60;;;;;;5039436;28;20582;-62
2022/03/18 12:10:35;;;;;;;1.20;1.10;;;18.50;37.50;;;;;;5039539;28;20496;-63
2022/03/18 12:13:02;;;;;;;1.40;1.30;;;18.60;37.60;;;;;;5037917;28;20430;-62
2022/03/18 12:15:29;;;;;;;1.23;1.00;;;18.50;37.60;;;;;;5040304;28;20471;-62
2022/03/18 12:17:57;;;;;;;1.43;1.33;;;18.50;37.50;;;;;;5036544;28;20422;-62
2022/03/18 12:20:32;;;;;;;1.77;1.20;;;18.50;37.50;;;;;;5037145;28;20419;-61
2022/03/18 12:23:00;;;;;;;1.30;1.10;;;18.50;37.50;;;;;;5036225;28;20466;-63
2022/03/18 12:25:26;;;;;;;1.17;1.00;;;18.50;37.50;;;;;;5036892;28;20530;-62
2022/03/18 12:27:53;;;;;;;1.80;1.20;;;18.60;37.60;;;;;;5039720;28;20515;-62
2022/03/18 12:30:25;;;;;;;1.40;1.27;;;18.50;37.50;;;;;;5042275;28;20242;-62
2022/03/18 12:32:55;;;;;;;1.47;1.37;;;18.50;37.50;;;;;;5043788;28;20437;-62
2022/03/18 12:35:30;;;;;;;1.77;1.47;;;18.50;37.60;;;;;;5041039;28;20539;-62
2022/03/18 12:38:08;;;;;;;1.93;1.13;;;18.60;37.60;;;;;;5044169;28;20406;-62
2022/03/18 12:40:43;;;;;;;1.20;1.10;;;18.60;37.50;;;;;;5040475;28;20517;-62
2022/03/18 12:43:08;;;;;;;1.20;1.10;;;18.60;37.60;;;;;;5040612;28;20463;-62
2022/03/18 12:45:39;;;;;;;1.80;1.10;;;18.60;37.60;;;;;;5042738;28;20497;-62
2022/03/18 12:48:07;;;;;;;1.20;1.10;;;18.50;37.60;;;;;;5039061;28;20230;-62
2022/03/18 12:50:59;;;;;;;1.30;1.20;;;18.50;37.50;;;;;;5038836;28;20418;-65
2022/03/18 12:53:34;;;;;;;4.37;1.03;;;18.60;37.60;;;;;;5038935;28;20911;-63
2022/03/18 12:56:00;;;;;;;1.20;1.10;;;18.50;37.60;;;;;;5040627;28;20443;-62
2022/03/18 12:58:28;;;;;;;1.20;1.10;;;18.50;37.50;;;;;;5043313;28;20429;-63
2022/03/18 13:00:56;;;;;;;1.40;1.20;;;18.60;37.60;;;;;;5041052;28;21080;-63
2022/03/18 13:03:25;;;;;;;1.33;1.23;;;18.60;37.60;;;;;;5034499;28;20461;-63